createdAt,value
2023-03-03T00:02:18.136Z,92.87
2023-03-03T00:04:47.786Z,92.91
2023-03-03T00:07:21.591Z,92.43
2023-03-03T00:09:50.588Z,92.44
2023-03-03T00:12:31.109Z,92.65
2023-03-03T00:14:59.175Z,92.68
2023-03-03T00:17:30.305Z,92.67
2023-03-03T00:19:58.258Z,92.61
2023-03-03T00:22:35.413Z,93.17
2023-03-03T00:25:31.396Z,93.77
2023-03-03T00:28:46.390Z,94.59
2023-03-03T00:31:20.706Z,94.47
2023-03-03T00:33:54.775Z,94.86
2023-03-03T00:36:41.123Z,94.73
2023-03-03T00:39:30.200Z,93.73
2023-03-03T00:42:01.151Z,94.15
2023-03-03T00:45:00.849Z,93.53
2023-03-03T00:47:38.734Z,93.42
2023-03-03T00:50:06.664Z,93.54
2023-03-03T00:52:38.529Z,94.04
2023-03-03T00:55:08.436Z,93.76
2023-03-03T00:57:36.356Z,93.36
2023-03-03T01:00:06.843Z,93.30
2023-03-03T01:02:34.972Z,93.53
2023-03-03T01:05:03.146Z,94.29
2023-03-03T01:07:31.089Z,94.42
2023-03-03T01:09:58.964Z,94.24
2023-03-03T01:12:28.067Z,94.00
2023-03-03T01:14:56.737Z,93.62
2023-03-03T01:17:24.735Z,93.87
2023-03-03T01:19:52.666Z,93.59
2023-03-03T01:22:20.611Z,93.36
2023-03-03T01:24:48.538Z,93.42
2023-03-03T01:27:16.395Z,93.80
2023-03-03T01:29:45.089Z,93.13
2023-03-03T01:32:13.127Z,92.95
2023-03-03T01:34:41.340Z,92.89
2023-03-03T01:37:09.301Z,92.70
2023-03-03T01:39:37.516Z,93.10
2023-03-03T01:42:05.617Z,92.93
2023-03-03T01:44:34.321Z,92.82
2023-03-03T01:47:13.638Z,93.24
2023-03-03T01:49:56.590Z,92.90
2023-03-03T01:52:33.312Z,92.70
2023-03-03T01:55:17.710Z,92.33
2023-03-03T01:57:58.400Z,92.41
2023-03-03T02:00:27.873Z,92.49
2023-03-03T02:02:56.115Z,92.41
2023-03-03T02:05:25.755Z,92.24
2023-03-03T02:07:53.889Z,92.17
2023-03-03T02:10:23.016Z,92.50
2023-03-03T02:12:54.648Z,92.19
2023-03-03T02:15:38.249Z,92.80
2023-03-03T02:18:14.338Z,92.53
2023-03-03T02:21:06.861Z,92.99
2023-03-03T02:24:05.371Z,93.44
2023-03-03T02:26:41.352Z,93.66
2023-03-03T02:29:10.356Z,93.32
2023-03-03T02:31:38.733Z,93.02
2023-03-03T02:34:06.988Z,93.27
2023-03-03T02:36:39.318Z,93.79
2023-03-03T02:39:13.612Z,93.16
2023-03-03T02:42:02.442Z,92.88
2023-03-03T02:44:36.394Z,92.14
2023-03-03T02:47:04.746Z,92.94
2023-03-03T02:49:35.451Z,93.11
2023-03-03T02:52:09.818Z,92.93
2023-03-03T02:54:38.904Z,93.37
2023-03-03T02:57:07.277Z,93.78
2023-03-03T02:59:35.312Z,93.57
2023-03-03T03:02:09.716Z,92.66
2023-03-03T03:04:37.766Z,92.82
2023-03-03T03:07:06.002Z,93.74
2023-03-03T03:09:36.179Z,94.12
2023-03-03T03:12:05.251Z,94.30
2023-03-03T03:14:35.604Z,94.62
2023-03-03T03:17:04.734Z,94.28
2023-03-03T03:19:32.780Z,94.01
2023-03-03T03:22:02.472Z,94.44
2023-03-03T03:24:30.890Z,93.62
2023-03-03T03:27:04.660Z,93.90
2023-03-03T03:29:33.800Z,93.59
2023-03-03T03:32:01.818Z,93.51
2023-03-03T03:34:29.784Z,93.72
2023-03-03T03:36:58.848Z,93.24
2023-03-03T03:39:27.780Z,93.34
2023-03-03T03:41:55.754Z,92.79
2023-03-03T03:44:25.238Z,92.90
2023-03-03T03:46:53.453Z,93.45
2023-03-03T03:49:21.587Z,92.66
2023-03-03T03:51:50.181Z,93.48
2023-03-03T03:54:19.729Z,94.36
2023-03-03T03:56:47.882Z,93.95
2023-03-03T03:59:15.819Z,93.24
2023-03-03T04:01:44.389Z,92.96
2023-03-03T04:04:12.395Z,92.85
2023-03-03T04:06:41.828Z,93.21
2023-03-03T04:09:10.632Z,93.30
2023-03-03T04:11:38.651Z,93.69
2023-03-03T04:14:07.903Z,94.03
2023-03-03T04:16:36.636Z,93.88
2023-03-03T04:19:04.650Z,93.20
2023-03-03T04:21:33.993Z,93.40
2023-03-03T04:24:03.358Z,93.17
2023-03-03T04:26:31.772Z,93.13
2023-03-03T04:29:01.697Z,92.85
2023-03-03T04:31:30.099Z,93.14
2023-03-03T04:33:58.525Z,92.75
2023-03-03T04:36:28.225Z,92.81
2023-03-03T04:38:56.339Z,92.58
2023-03-03T04:41:24.437Z,92.54
2023-03-03T04:43:52.996Z,92.89
2023-03-03T04:46:20.969Z,93.69
2023-03-03T04:48:49.117Z,93.52
2023-03-03T04:51:18.651Z,93.01
2023-03-03T04:53:46.673Z,93.03
2023-03-03T04:56:15.482Z,93.07
2023-03-03T04:58:43.465Z,92.84
2023-03-03T05:01:15.449Z,92.92
2023-03-03T05:03:43.493Z,93.39
2023-03-03T05:06:11.663Z,92.78
2023-03-03T05:08:39.607Z,92.73
2023-03-03T05:11:07.534Z,93.00
2023-03-03T05:13:35.412Z,92.98
2023-03-03T05:16:04.337Z,92.88
2023-03-03T05:18:32.424Z,92.66
2023-03-03T05:21:00.366Z,92.65
2023-03-03T05:23:28.982Z,92.47
2023-03-03T05:25:57.551Z,91.90
2023-03-03T05:28:25.697Z,91.78
2023-03-03T05:30:56.655Z,92.03
2023-03-03T05:33:28.322Z,91.90
2023-03-03T05:35:59.969Z,91.87
2023-03-03T05:38:27.970Z,92.08
2023-03-03T05:40:56.241Z,92.15
2023-03-03T05:43:24.761Z,91.67
2023-03-03T05:45:59.117Z,91.57
2023-03-03T05:48:27.935Z,91.68
2023-03-03T05:51:02.351Z,92.42
2023-03-03T05:53:30.911Z,92.48
2023-03-03T05:55:58.881Z,92.55
2023-03-03T05:58:27.040Z,92.44
2023-03-03T06:00:55.142Z,92.41
2023-03-03T06:03:23.093Z,93.57
2023-03-03T06:05:51.146Z,93.44
2023-03-03T06:08:19.198Z,93.40
2023-03-03T06:10:49.807Z,92.78
2023-03-03T06:13:18.029Z,92.56
2023-03-03T06:15:46.101Z,93.08
2023-03-03T06:18:14.143Z,92.82
2023-03-03T06:20:42.494Z,92.84
2023-03-03T06:23:13.569Z,93.10
2023-03-03T06:25:42.098Z,93.55
2023-03-03T06:28:10.113Z,92.86
2023-03-03T06:30:38.221Z,92.51
2023-03-03T06:33:06.090Z,92.37
2023-03-03T06:35:34.053Z,91.94
2023-03-03T06:38:02.856Z,91.45
2023-03-03T06:40:30.815Z,91.93
2023-03-03T06:42:58.814Z,92.01
2023-03-03T06:45:31.904Z,92.20
2023-03-03T06:48:02.113Z,92.65
2023-03-03T06:50:30.256Z,92.58
2023-03-03T06:53:17.335Z,92.05
2023-03-03T06:55:46.394Z,91.72
2023-03-03T06:58:20.801Z,91.36
2023-03-03T07:00:58.549Z,91.04
2023-03-03T07:03:34.656Z,91.30
2023-03-03T07:06:20.363Z,91.51
2023-03-03T07:08:48.353Z,91.83
2023-03-03T07:11:22.809Z,91.06
2023-03-03T07:13:54.477Z,91.14
2023-03-03T07:16:27.554Z,91.10
2023-03-03T07:19:06.364Z,90.71
2023-03-03T07:21:37.952Z,91.41
2023-03-03T07:24:27.425Z,91.34
2023-03-03T07:27:19.826Z,91.31
2023-03-03T07:29:51.446Z,91.52
2023-03-03T07:32:40.410Z,91.53
2023-03-03T07:35:40.858Z,90.71
2023-03-03T07:38:42.153Z,91.47
2023-03-03T07:41:17.465Z,91.73
2023-03-03T07:43:56.533Z,91.95
2023-03-03T07:46:41.404Z,90.83
2023-03-03T07:49:37.829Z,91.15
2023-03-03T07:52:39.606Z,92.53
2023-03-03T07:55:35.358Z,91.41
2023-03-03T07:58:36.727Z,90.69
2023-03-03T08:01:46.311Z,90.91
2023-03-03T08:04:28.499Z,91.22
2023-03-03T08:07:00.409Z,90.49
2023-03-03T08:09:44.902Z,90.52
2023-03-03T08:12:12.830Z,90.54
2023-03-03T08:14:40.745Z,89.96
2023-03-03T08:17:22.680Z,89.87
2023-03-03T08:19:53.388Z,89.81
2023-03-03T08:22:30.417Z,89.65
2023-03-03T08:24:58.642Z,90.31
2023-03-03T08:27:26.620Z,90.16
2023-03-03T08:29:54.857Z,90.55
2023-03-03T08:32:23.069Z,90.59
2023-03-03T08:34:51.069Z,90.27
2023-03-03T08:37:19.027Z,89.83
2023-03-03T08:39:46.974Z,90.79
2023-03-03T08:42:16.310Z,91.25
2023-03-03T08:44:44.538Z,90.54
2023-03-03T08:47:12.524Z,89.58
2023-03-03T08:49:40.544Z,89.48
2023-03-03T08:52:08.486Z,89.59
2023-03-03T08:54:36.523Z,89.99
2023-03-03T08:57:04.496Z,90.61
2023-03-03T08:59:37.660Z,90.27
2023-03-03T09:02:07.199Z,90.17
2023-03-03T09:04:35.250Z,89.85
2023-03-03T09:07:03.344Z,88.96
2023-03-03T09:09:32.147Z,88.50
2023-03-03T09:12:16.179Z,88.45
2023-03-03T09:14:47.006Z,88.34
2023-03-03T09:17:35.251Z,88.40
2023-03-03T09:20:32.574Z,88.04
2023-03-03T09:23:33.653Z,88.10
2023-03-03T09:26:40.215Z,89.25
2023-03-03T09:29:14.384Z,88.41
2023-03-03T09:31:49.393Z,87.68
2023-03-03T09:34:36.747Z,87.61
2023-03-03T09:37:32.348Z,87.60
2023-03-03T09:40:01.219Z,88.23
2023-03-03T09:43:29.171Z,88.38
2023-03-03T09:46:25.260Z,89.14
2023-03-03T09:49:32.960Z,88.44
2023-03-03T09:52:29.836Z,88.06
2023-03-03T09:55:18.634Z,88.15
2023-03-03T09:58:23.735Z,88.15
2023-03-03T10:01:12.082Z,88.51
2023-03-03T10:03:58.333Z,90.36
2023-03-03T10:06:37.946Z,90.06
2023-03-03T10:09:36.699Z,89.95
2023-03-03T10:12:50.600Z,90.88
2023-03-03T10:15:40.453Z,89.79
2023-03-03T10:18:29.075Z,88.65
2023-03-03T10:21:14.972Z,88.55
2023-03-03T10:24:05.764Z,88.04
2023-03-03T10:26:44.795Z,87.67
2023-03-03T10:29:30.441Z,87.54
2023-03-03T10:32:41.271Z,87.72
2023-03-03T10:35:41.855Z,87.94
2023-03-03T10:38:44.094Z,88.46
2023-03-03T10:41:34.662Z,88.33
2023-03-03T10:44:25.774Z,88.78
2023-03-03T10:47:48.628Z,88.31
2023-03-03T10:50:44.790Z,87.14
2023-03-03T10:53:23.307Z,87.23
2023-03-03T10:56:43.058Z,87.26
2023-03-03T10:59:48.517Z,86.99
2023-03-03T11:02:53.497Z,87.47
2023-03-03T11:05:58.895Z,86.47
2023-03-03T11:09:00.995Z,86.87
2023-03-03T11:11:48.847Z,86.76
2023-03-03T11:14:36.686Z,86.67
2023-03-03T11:18:03.002Z,87.73
2023-03-03T11:21:13.088Z,87.92
2023-03-03T11:24:25.183Z,86.97
2023-03-03T11:27:13.277Z,87.27
2023-03-03T11:30:00.621Z,86.22
2023-03-03T11:33:04.816Z,86.87
2023-03-03T11:36:05.326Z,86.79
2023-03-03T11:38:37.039Z,86.07
2023-03-03T11:41:19.397Z,85.63
2023-03-03T11:43:57.563Z,85.75
2023-03-03T11:46:32.028Z,86.52
2023-03-03T11:49:09.393Z,86.27
2023-03-03T11:51:43.326Z,86.25
2023-03-03T11:54:46.996Z,86.18
2023-03-03T11:57:49.889Z,85.93
2023-03-03T12:00:41.101Z,87.47
2023-03-03T12:03:37.686Z,86.69
2023-03-03T12:06:37.163Z,85.68
2023-03-03T12:09:14.531Z,85.50
2023-03-03T12:12:07.999Z,85.60
2023-03-03T12:15:05.958Z,85.47
2023-03-03T12:17:59.156Z,85.37
2023-03-03T12:20:52.147Z,84.90
2023-03-03T12:23:47.737Z,85.07
2023-03-03T12:26:37.374Z,85.74
2023-03-03T12:29:21.228Z,86.07
2023-03-03T12:32:27.934Z,85.52
2023-03-03T12:35:12.164Z,85.00
2023-03-03T12:38:19.413Z,84.83
2023-03-03T12:41:09.704Z,85.07
2023-03-03T12:44:10.413Z,86.02
2023-03-03T12:46:59.775Z,85.99
2023-03-03T12:49:51.925Z,86.16
2023-03-03T12:53:09.905Z,85.48
2023-03-03T12:56:08.276Z,85.40
2023-03-03T12:59:06.327Z,84.78
2023-03-03T13:02:00.194Z,84.58
2023-03-03T13:05:00.879Z,84.06
2023-03-03T13:08:06.389Z,84.88
2023-03-03T13:10:59.865Z,84.41
2023-03-03T13:13:37.779Z,85.28
2023-03-03T13:16:22.258Z,85.79
2023-03-03T13:19:05.362Z,85.40
2023-03-03T13:21:46.746Z,84.66
2023-03-03T13:24:59.130Z,83.73
2023-03-03T13:27:37.853Z,84.34
2023-03-03T13:30:27.840Z,84.48
2023-03-03T13:33:21.666Z,84.71
2023-03-03T13:36:10.430Z,83.44
2023-03-03T13:38:54.724Z,82.95
2023-03-03T13:41:32.249Z,83.12
2023-03-03T13:44:15.354Z,83.28
2023-03-03T13:47:00.516Z,83.91
2023-03-03T13:50:05.678Z,84.97
2023-03-03T13:52:57.182Z,84.69
2023-03-03T13:55:43.963Z,84.14
2023-03-03T13:58:56.777Z,83.51
2023-03-03T14:01:53.775Z,84.34
2023-03-03T14:05:02.484Z,85.04
2023-03-03T14:07:57.428Z,86.00
2023-03-03T14:10:32.690Z,85.88
2023-03-03T14:13:05.573Z,86.59
2023-03-03T14:15:57.002Z,86.20
2023-03-03T14:18:57.653Z,86.22
2023-03-03T14:21:40.993Z,85.23
2023-03-03T14:24:21.339Z,86.41
2023-03-03T14:26:53.713Z,86.49
2023-03-03T14:29:31.573Z,84.59
2023-03-03T14:32:20.264Z,83.59
2023-03-03T14:34:58.232Z,82.96
2023-03-03T14:37:30.228Z,83.07
2023-03-03T14:40:32.471Z,83.85
2023-03-03T14:43:05.693Z,83.18
2023-03-03T14:45:38.554Z,83.71
2023-03-03T14:48:13.630Z,83.66
2023-03-03T14:50:49.843Z,84.40
2023-03-03T14:53:21.395Z,85.16
2023-03-03T14:55:52.881Z,83.67
2023-03-03T14:58:40.530Z,83.53
2023-03-03T15:01:22.333Z,84.19
2023-03-03T15:04:02.485Z,84.61
2023-03-03T15:06:51.157Z,85.24
2023-03-03T15:09:45.529Z,85.69
2023-03-03T15:12:42.166Z,85.46
2023-03-03T15:15:14.678Z,85.15
2023-03-03T15:17:54.051Z,85.48
2023-03-03T15:20:47.285Z,84.97
2023-03-03T15:23:31.549Z,85.39
2023-03-03T15:26:05.049Z,85.37
2023-03-03T15:28:54.161Z,84.66
2023-03-03T15:31:41.260Z,85.05
2023-03-03T15:34:39.415Z,84.06
2023-03-03T15:37:49.989Z,84.22
2023-03-03T15:40:56.763Z,84.67
2023-03-03T15:43:53.238Z,86.16
2023-03-03T15:46:33.490Z,84.97
2023-03-03T15:49:40.493Z,85.58
2023-03-03T15:52:33.193Z,85.96
2023-03-03T15:55:25.042Z,86.07
2023-03-03T15:58:39.976Z,85.85
2023-03-03T16:01:34.311Z,85.90
2023-03-03T16:04:11.273Z,85.37
2023-03-03T16:07:30.779Z,85.78
2023-03-03T16:10:29.743Z,85.83
2023-03-03T16:13:35.630Z,85.68
2023-03-03T16:16:40.201Z,85.40
2023-03-03T16:19:21.422Z,85.04
2023-03-03T16:22:44.051Z,85.62
2023-03-03T16:25:32.680Z,85.46
2023-03-03T16:28:14.640Z,85.03
2023-03-03T16:30:51.973Z,85.15
2023-03-03T16:34:01.162Z,84.99
2023-03-03T16:36:54.805Z,85.26
2023-03-03T16:39:52.910Z,85.06
2023-03-03T16:42:30.903Z,85.09
2023-03-03T16:45:21.864Z,85.80
2023-03-03T16:48:25.612Z,85.66
2023-03-03T16:51:14.573Z,85.65
2023-03-03T16:54:10.557Z,85.36
2023-03-03T16:57:11.476Z,85.33
2023-03-03T17:00:20.286Z,85.55
2023-03-03T17:03:21.919Z,85.47
2023-03-03T17:06:24.065Z,85.93
2023-03-03T17:09:32.248Z,86.12
2023-03-03T17:12:26.340Z,86.31
2023-03-03T17:15:26.176Z,86.64
2023-03-03T17:18:26.495Z,86.94
2023-03-03T17:21:00.859Z,86.21
2023-03-03T17:23:54.574Z,85.93
2023-03-03T17:26:50.514Z,85.99
2023-03-03T17:29:28.010Z,85.84
2023-03-03T17:32:19.527Z,85.75
2023-03-03T17:35:14.411Z,85.84
2023-03-03T17:38:18.929Z,85.54
2023-03-03T17:41:33.535Z,85.92
2023-03-03T17:44:06.560Z,86.20
2023-03-03T17:46:43.875Z,86.19
2023-03-03T17:49:54.035Z,86.24
2023-03-03T17:53:00.320Z,85.97
2023-03-03T17:55:47.046Z,86.11
2023-03-03T17:58:49.548Z,86.81
2023-03-03T18:01:33.707Z,86.64
2023-03-03T18:04:59.314Z,86.54
2023-03-03T18:07:55.230Z,86.90
2023-03-03T18:10:48.101Z,87.22
2023-03-03T18:14:07.043Z,86.48
2023-03-03T18:16:56.874Z,86.65
2023-03-03T18:19:56.446Z,86.68
2023-03-03T18:22:52.464Z,86.71
2023-03-03T18:25:55.807Z,86.27
2023-03-03T18:28:49.983Z,87.07
2023-03-03T18:31:27.438Z,86.93
2023-03-03T18:34:08.805Z,86.62
2023-03-03T18:36:53.013Z,86.88
2023-03-03T18:40:10.108Z,86.68
2023-03-03T18:42:41.483Z,86.86
2023-03-03T18:45:19.376Z,86.46
2023-03-03T18:48:13.546Z,86.29
2023-03-03T18:50:47.390Z,87.11
2023-03-03T18:53:31.160Z,87.56
2023-03-03T18:56:02.684Z,87.59
2023-03-03T18:58:41.628Z,87.70
2023-03-03T19:01:39.950Z,87.80
2023-03-03T19:04:16.205Z,87.70
2023-03-03T19:06:48.077Z,87.83
2023-03-03T19:10:08.762Z,87.67
2023-03-03T19:12:55.991Z,87.30
2023-03-03T19:15:30.358Z,87.77
2023-03-03T19:18:04.647Z,87.62
2023-03-03T19:21:05.939Z,87.75
2023-03-03T19:23:54.375Z,88.05
2023-03-03T19:26:25.471Z,88.15
2023-03-03T19:29:23.782Z,87.96
2023-03-03T19:32:47.683Z,87.92
2023-03-03T19:35:45.227Z,87.90
2023-03-03T19:39:16.632Z,88.06
2023-03-03T19:41:53.786Z,88.32
2023-03-03T19:45:12.431Z,88.47
2023-03-03T19:47:51.414Z,88.73
2023-03-03T19:50:44.584Z,88.74
2023-03-03T19:53:29.848Z,88.62
2023-03-03T19:56:47.474Z,88.43
2023-03-03T20:00:03.018Z,88.45
2023-03-03T20:03:22.119Z,88.79
2023-03-03T20:06:12.417Z,88.98
2023-03-03T20:09:01.905Z,88.66
2023-03-03T20:11:51.356Z,88.67
2023-03-03T20:14:45.935Z,88.60
2023-03-03T20:17:30.534Z,88.60
2023-03-03T20:20:51.464Z,88.74
2023-03-03T20:23:53.629Z,88.61
2023-03-03T20:26:39.970Z,88.94
2023-03-03T20:30:05.886Z,89.33
2023-03-03T20:33:00.194Z,89.06
2023-03-03T20:35:53.403Z,88.75
2023-03-03T20:39:05.208Z,88.87
2023-03-03T20:41:56.099Z,89.08
2023-03-03T20:44:37.423Z,88.69
2023-03-03T20:47:35.815Z,88.78
2023-03-03T20:50:37.179Z,88.53
2023-03-03T20:53:57.583Z,88.61
2023-03-03T20:57:06.020Z,88.78
2023-03-03T21:00:00.586Z,88.36
2023-03-03T21:02:53.671Z,88.37
2023-03-03T21:05:23.565Z,88.19
2023-03-03T21:07:54.298Z,88.19
2023-03-03T21:10:26.835Z,88.08
2023-03-03T21:12:58.990Z,88.36
2023-03-03T21:15:36.040Z,88.25
2023-03-03T21:18:24.360Z,88.12
2023-03-03T21:20:52.375Z,88.64
2023-03-03T21:23:21.020Z,88.42
2023-03-03T21:25:52.732Z,88.04
2023-03-03T21:28:28.854Z,87.64
2023-03-03T21:31:16.752Z,87.65
2023-03-03T21:33:49.161Z,87.22
2023-03-03T21:36:31.918Z,87.53
2023-03-03T21:39:02.029Z,87.51
2023-03-03T21:42:09.676Z,87.14
2023-03-03T21:44:44.027Z,86.48
2023-03-03T21:47:24.354Z,86.38
2023-03-03T21:49:52.930Z,86.31
2023-03-03T21:52:22.652Z,86.39
2023-03-03T21:54:51.781Z,86.30
2023-03-03T21:57:19.758Z,86.24
2023-03-03T21:59:47.923Z,86.14
2023-03-03T22:02:16.188Z,86.17
2023-03-03T22:04:44.286Z,86.38
2023-03-03T22:07:12.418Z,86.60
2023-03-03T22:09:41.037Z,86.37
2023-03-03T22:12:09.117Z,86.01
2023-03-03T22:14:37.096Z,85.61
2023-03-03T22:17:05.473Z,85.71
2023-03-03T22:19:34.173Z,85.64
2023-03-03T22:22:02.223Z,85.88
2023-03-03T22:24:31.067Z,85.68
2023-03-03T22:26:59.297Z,85.67
2023-03-03T22:29:27.286Z,85.60
2023-03-03T22:31:55.649Z,85.62
2023-03-03T22:34:23.840Z,85.53
2023-03-03T22:36:51.785Z,85.51
2023-03-03T22:39:19.687Z,85.54
2023-03-03T22:41:47.604Z,85.12
2023-03-03T22:44:16.437Z,85.57
2023-03-03T22:46:45.139Z,85.62
2023-03-03T22:49:13.078Z,85.50
2023-03-03T22:51:41.059Z,85.37
2023-03-03T22:54:10.040Z,85.55
2023-03-03T22:56:38.089Z,85.25
2023-03-03T22:59:06.036Z,85.28
2023-03-03T23:01:33.978Z,85.41
2023-03-03T23:04:01.941Z,85.70
2023-03-03T23:06:29.822Z,85.51
2023-03-03T23:08:57.811Z,85.77
2023-03-03T23:11:27.580Z,85.73
2023-03-03T23:13:55.509Z,85.36
2023-03-03T23:16:23.443Z,85.47
2023-03-03T23:18:51.374Z,85.25
2023-03-03T23:21:19.616Z,85.10
2023-03-03T23:23:47.697Z,84.94
2023-03-03T23:26:15.608Z,84.90
2023-03-03T23:28:43.864Z,85.17
2023-03-03T23:31:11.848Z,85.31
2023-03-03T23:33:39.815Z,84.95
2023-03-03T23:36:08.321Z,84.77
2023-03-03T23:38:36.259Z,84.44
2023-03-03T23:41:04.500Z,84.66
2023-03-03T23:43:33.528Z,84.57
2023-03-03T23:46:01.466Z,84.77
2023-03-03T23:48:29.359Z,84.59
2023-03-03T23:50:57.350Z,84.32
2023-03-03T23:53:25.414Z,84.23
2023-03-03T23:55:53.293Z,84.39
2023-03-03T23:58:21.168Z,84.05
